createdAt,value
2022-10-21T00:00:21.936Z,12.06
2022-10-21T00:03:24.608Z,12.05
2022-10-21T00:06:26.132Z,12.07
2022-10-21T00:09:29.030Z,12.08
2022-10-21T00:12:31.267Z,12.08
2022-10-21T00:15:32.709Z,12.06
2022-10-21T00:18:35.523Z,12.04
2022-10-21T00:21:38.207Z,12.08
2022-10-21T00:24:41.702Z,12.09
2022-10-21T00:27:43.189Z,12.14
2022-10-21T00:30:45.131Z,12.15
2022-10-21T00:33:46.595Z,12.21
2022-10-21T00:36:48.299Z,12.25
2022-10-21T00:39:51.484Z,12.27
2022-10-21T00:42:53.168Z,12.27
2022-10-21T00:45:57.654Z,12.31
2022-10-21T00:48:59.976Z,12.35
2022-10-21T00:52:03.907Z,12.33
2022-10-21T00:55:07.591Z,12.29
2022-10-21T00:58:09.528Z,12.22
2022-10-21T01:01:11.111Z,12.21
2022-10-21T01:04:12.868Z,12.19
2022-10-21T01:07:14.974Z,12.12
2022-10-21T01:10:18.403Z,12.10
2022-10-21T01:13:25.669Z,12.07
2022-10-21T01:16:31.754Z,12.07
2022-10-21T01:19:50.821Z,12.07
2022-10-21T01:23:10.956Z,12.05
2022-10-21T01:26:25.480Z,12.09
2022-10-21T01:29:47.705Z,12.15
2022-10-21T01:33:14.219Z,12.18
2022-10-21T01:36:22.943Z,12.17
2022-10-21T01:39:27.373Z,12.19
2022-10-21T01:42:32.233Z,12.16
2022-10-21T01:45:36.684Z,12.16
2022-10-21T01:48:41.922Z,12.11
2022-10-21T01:51:43.684Z,12.11
2022-10-21T01:54:48.019Z,12.08
2022-10-21T01:57:51.278Z,12.06
2022-10-21T02:00:54.141Z,12.02
2022-10-21T02:03:59.091Z,11.99
2022-10-21T02:07:01.796Z,12.02
2022-10-21T02:10:04.186Z,12.03
2022-10-21T02:13:08.198Z,12.02
2022-10-21T02:16:11.065Z,12.04
2022-10-21T02:19:16.188Z,12.05
2022-10-21T02:22:19.179Z,12.07
2022-10-21T02:25:23.586Z,12.08
2022-10-21T02:28:25.407Z,12.09
2022-10-21T02:31:39.206Z,12.05
2022-10-21T02:34:48.518Z,12.04
2022-10-21T02:37:54.290Z,12.05
2022-10-21T02:40:58.422Z,12.04
2022-10-21T02:44:01.017Z,12.09
2022-10-21T02:47:03.461Z,12.08
2022-10-21T02:50:06.874Z,12.10
2022-10-21T02:53:10.301Z,12.13
2022-10-21T02:56:11.801Z,12.19
2022-10-21T02:59:13.553Z,12.22
2022-10-21T03:02:15.111Z,12.26
2022-10-21T03:05:18.052Z,12.31
2022-10-21T03:08:19.568Z,12.39
2022-10-21T03:11:21.323Z,12.40
2022-10-21T03:14:22.839Z,12.43
2022-10-21T03:17:25.463Z,12.44
2022-10-21T03:20:28.630Z,12.45
2022-10-21T03:23:30.284Z,12.45
2022-10-21T03:26:31.983Z,12.46
2022-10-21T03:29:33.446Z,12.50
2022-10-21T03:32:35.328Z,12.51
2022-10-21T03:35:40.645Z,12.50
2022-10-21T03:38:42.293Z,12.48
2022-10-21T03:41:44.072Z,12.47
2022-10-21T03:44:45.739Z,12.46
2022-10-21T03:47:47.818Z,12.44
2022-10-21T03:50:50.856Z,12.45
2022-10-21T03:53:52.417Z,12.44
2022-10-21T03:56:53.885Z,12.42
2022-10-21T03:59:55.431Z,12.40
2022-10-21T04:02:57.015Z,12.40
2022-10-21T04:06:00.124Z,12.40
2022-10-21T04:09:01.799Z,12.40
2022-10-21T04:12:03.486Z,12.40
2022-10-21T04:15:05.798Z,12.43
2022-10-21T04:18:07.945Z,12.46
2022-10-21T04:21:11.231Z,12.50
2022-10-21T04:24:12.925Z,12.52
2022-10-21T04:27:14.846Z,12.52
2022-10-21T04:30:16.366Z,12.50
2022-10-21T04:33:17.887Z,12.52
2022-10-21T04:36:20.687Z,12.57
2022-10-21T04:39:22.364Z,12.58
2022-10-21T04:42:25.981Z,12.59
2022-10-21T04:45:27.862Z,12.57
2022-10-21T04:48:31.757Z,12.58
2022-10-21T04:51:34.588Z,12.57
2022-10-21T04:54:36.284Z,12.58
2022-10-21T04:57:37.782Z,12.59
2022-10-21T05:00:39.336Z,12.57
2022-10-21T05:03:41.014Z,12.57
2022-10-21T05:06:43.939Z,12.56
2022-10-21T05:09:45.668Z,12.59
2022-10-21T05:12:47.140Z,12.57
2022-10-21T05:15:48.934Z,12.59
2022-10-21T05:18:50.605Z,12.63
2022-10-21T05:21:53.432Z,12.60
2022-10-21T05:24:55.283Z,12.60
2022-10-21T05:27:56.851Z,12.63
2022-10-21T05:30:58.517Z,12.63
2022-10-21T05:34:00.183Z,12.60
2022-10-21T05:37:03.237Z,12.56
2022-10-21T05:40:05.357Z,12.55
2022-10-21T05:43:06.908Z,12.53
2022-10-21T05:46:09.329Z,12.49
2022-10-21T05:49:11.055Z,12.44
2022-10-21T05:52:14.159Z,12.44
2022-10-21T05:55:15.878Z,12.43
2022-10-21T05:58:17.548Z,12.41
2022-10-21T06:01:19.357Z,12.42
2022-10-21T06:04:24.426Z,12.42
2022-10-21T06:07:27.613Z,12.43
2022-10-21T06:10:29.358Z,12.45
2022-10-21T06:13:30.987Z,12.48
2022-10-21T06:16:35.241Z,12.47
2022-10-21T06:19:37.034Z,12.48
2022-10-21T06:22:40.119Z,12.51
2022-10-21T06:25:41.799Z,12.55
2022-10-21T06:28:44.634Z,12.59
2022-10-21T06:31:46.277Z,12.58
2022-10-21T06:34:47.849Z,12.59
2022-10-21T06:37:50.872Z,12.60
2022-10-21T06:40:52.396Z,12.59
2022-10-21T06:43:54.037Z,12.60
2022-10-21T06:46:55.610Z,12.59
2022-10-21T06:49:57.681Z,12.57
2022-10-21T06:53:00.679Z,12.57
2022-10-21T06:56:02.797Z,12.59
2022-10-21T06:59:04.512Z,12.62
2022-10-21T07:02:06.176Z,12.62
2022-10-21T07:05:08.544Z,12.61
2022-10-21T07:08:12.769Z,12.63
2022-10-21T07:11:14.572Z,12.66
2022-10-21T07:14:16.395Z,12.70
2022-10-21T07:17:18.223Z,12.77
2022-10-21T07:20:19.665Z,12.80
2022-10-21T07:23:22.790Z,12.84
2022-10-21T07:26:24.615Z,12.88
2022-10-21T07:29:26.367Z,12.92
2022-10-21T07:32:27.928Z,12.95
2022-10-21T07:35:29.572Z,12.98
2022-10-21T07:38:32.750Z,13.01
2022-10-21T07:41:35.520Z,13.02
2022-10-21T07:44:37.065Z,13.09
2022-10-21T07:47:39.081Z,13.13
2022-10-21T07:50:40.788Z,13.17
2022-10-21T07:53:44.049Z,13.21
2022-10-21T07:56:46.892Z,13.27
2022-10-21T07:59:48.424Z,13.33
2022-10-21T08:02:53.195Z,13.39
2022-10-21T08:05:55.103Z,13.45
2022-10-21T08:08:58.713Z,13.50
2022-10-21T08:12:00.460Z,13.53
2022-10-21T08:15:01.925Z,13.54
2022-10-21T08:18:03.607Z,13.58
2022-10-21T08:21:05.496Z,13.61
2022-10-21T08:24:08.434Z,13.62
2022-10-21T08:27:09.946Z,13.63
2022-10-21T08:30:11.759Z,13.66
2022-10-21T08:33:13.774Z,13.69
2022-10-21T08:36:16.408Z,13.74
2022-10-21T08:39:19.381Z,13.78
2022-10-21T08:42:21.128Z,13.83
2022-10-21T08:45:31.694Z,13.89
2022-10-21T08:48:39.094Z,13.99
2022-10-21T08:51:42.119Z,14.06
2022-10-21T08:54:47.879Z,14.15
2022-10-21T08:57:49.704Z,14.17
2022-10-21T09:00:54.269Z,14.26
2022-10-21T09:03:59.157Z,14.28
2022-10-21T09:07:07.223Z,14.26
2022-10-21T09:10:16.638Z,14.25
2022-10-21T09:13:22.665Z,14.28
2022-10-21T09:16:27.992Z,14.32
2022-10-21T09:19:37.767Z,14.31
2022-10-21T09:22:48.943Z,14.34
2022-10-21T09:25:56.689Z,14.33
2022-10-21T09:28:58.945Z,14.32
2022-10-21T09:32:09.236Z,14.32
2022-10-21T09:35:15.796Z,14.33
2022-10-21T09:38:20.866Z,14.32
2022-10-21T09:41:26.504Z,14.30
2022-10-21T09:44:28.710Z,14.29
2022-10-21T09:47:30.345Z,14.28
2022-10-21T09:50:33.256Z,14.27
2022-10-21T09:53:37.528Z,14.26
2022-10-21T09:56:43.022Z,14.27
2022-10-21T09:59:51.888Z,14.26
2022-10-21T10:02:53.461Z,14.27
2022-10-21T10:05:54.981Z,14.26
2022-10-21T10:09:05.684Z,14.23
2022-10-21T10:12:13.186Z,14.24
2022-10-21T10:15:25.820Z,14.27
2022-10-21T10:18:29.842Z,14.27
2022-10-21T10:21:32.412Z,14.26
2022-10-21T10:24:34.406Z,14.28
2022-10-21T10:27:46.592Z,14.28
2022-10-21T10:30:50.272Z,14.28
2022-10-21T10:33:56.592Z,14.28
2022-10-21T10:37:02.103Z,14.29
2022-10-21T10:40:06.751Z,14.27
2022-10-21T10:43:13.357Z,14.28
2022-10-21T10:46:21.517Z,14.30
2022-10-21T10:49:23.596Z,14.31
2022-10-21T10:52:25.548Z,14.30
2022-10-21T10:55:27.636Z,14.30
2022-10-21T10:58:33.423Z,14.29
2022-10-21T11:01:37.871Z,14.29
2022-10-21T11:04:41.346Z,14.29
2022-10-21T11:07:44.915Z,14.30
2022-10-21T11:10:47.105Z,14.30
2022-10-21T11:13:53.245Z,14.29
2022-10-21T11:17:02.809Z,14.30
2022-10-21T11:20:08.871Z,14.31
2022-10-21T11:23:17.338Z,14.32
2022-10-21T11:26:22.800Z,14.31
2022-10-21T11:29:39.799Z,14.30
2022-10-21T11:32:52.664Z,14.27
2022-10-21T11:35:58.137Z,14.26
2022-10-21T11:39:12.215Z,14.20
2022-10-21T11:42:19.862Z,14.14
2022-10-21T11:45:31.573Z,14.10
2022-10-21T11:48:46.496Z,14.07
2022-10-21T11:51:53.599Z,14.03
2022-10-21T11:55:14.508Z,13.99
2022-10-21T11:58:30.055Z,14.00
2022-10-21T12:01:40.593Z,13.95
2022-10-21T12:04:47.438Z,13.95
2022-10-21T12:08:01.013Z,13.96
2022-10-21T12:11:06.381Z,13.97
2022-10-21T12:14:15.288Z,13.97
2022-10-21T12:17:19.668Z,13.94
2022-10-21T12:20:23.974Z,13.94
2022-10-21T12:23:28.791Z,13.91
2022-10-21T12:26:34.103Z,13.89
2022-10-21T12:29:44.216Z,13.86
2022-10-21T12:32:54.180Z,13.82
2022-10-21T12:35:57.673Z,13.79
2022-10-21T12:38:59.366Z,13.78
2022-10-21T12:42:05.024Z,13.75
2022-10-21T12:45:25.094Z,13.73
2022-10-21T12:48:32.230Z,13.72
2022-10-21T12:51:34.859Z,13.71
2022-10-21T12:54:40.906Z,13.71
2022-10-21T12:57:43.035Z,13.70
2022-10-21T13:00:52.978Z,13.71
2022-10-21T13:03:56.788Z,13.69
2022-10-21T13:06:58.993Z,13.70
2022-10-21T13:10:15.111Z,13.72
2022-10-21T13:13:40.835Z,13.72
2022-10-21T13:16:42.699Z,13.73
2022-10-21T13:19:45.672Z,13.72
2022-10-21T13:22:48.320Z,13.73
2022-10-21T13:26:03.580Z,13.73
2022-10-21T13:29:19.662Z,13.73
2022-10-21T13:32:23.458Z,13.74
2022-10-21T13:35:30.183Z,13.74
2022-10-21T13:38:32.745Z,13.72
2022-10-21T13:41:34.619Z,13.72
2022-10-21T13:44:37.465Z,13.71
2022-10-21T13:47:39.389Z,13.71
2022-10-21T13:50:44.074Z,13.69
2022-10-21T13:53:46.229Z,13.67
2022-10-21T13:56:48.499Z,13.65
2022-10-21T13:59:59.586Z,13.64
2022-10-21T14:03:02.743Z,13.64
2022-10-21T14:06:08.762Z,13.63
2022-10-21T14:09:16.143Z,13.66
2022-10-21T14:12:20.813Z,13.64
2022-10-21T14:15:24.344Z,13.65
2022-10-21T14:18:32.396Z,13.66
2022-10-21T14:21:43.888Z,13.68
2022-10-21T14:24:46.760Z,13.72
2022-10-21T14:27:48.947Z,13.78
2022-10-21T14:30:50.703Z,13.79
2022-10-21T14:33:52.350Z,13.82
2022-10-21T14:37:02.413Z,13.82
2022-10-21T14:40:11.789Z,13.83
2022-10-21T14:43:18.654Z,13.81
2022-10-21T14:46:20.770Z,13.85
2022-10-21T14:49:24.109Z,13.82
2022-10-21T14:52:31.964Z,13.82
2022-10-21T14:55:33.469Z,13.81
2022-10-21T14:58:35.951Z,13.80
2022-10-21T15:01:42.076Z,13.80
2022-10-21T15:04:50.539Z,13.79
2022-10-21T15:08:13.628Z,13.77
2022-10-21T15:11:31.648Z,13.78
2022-10-21T15:14:34.858Z,13.78
2022-10-21T15:17:36.823Z,13.76
2022-10-21T15:20:38.776Z,13.75
2022-10-21T15:23:43.744Z,13.74
2022-10-21T15:26:46.347Z,13.76
2022-10-21T15:29:48.891Z,13.76
2022-10-21T15:32:50.766Z,13.76
2022-10-21T15:36:02.829Z,13.77
2022-10-21T15:39:09.438Z,13.76
2022-10-21T15:42:11.380Z,13.76
2022-10-21T15:45:13.819Z,13.77
2022-10-21T15:48:15.566Z,13.77
2022-10-21T15:51:17.102Z,13.78
2022-10-21T15:54:21.076Z,13.77
2022-10-21T15:57:22.983Z,13.78
2022-10-21T16:00:24.583Z,13.78
2022-10-21T16:03:28.184Z,13.78
2022-10-21T16:06:30.414Z,13.75
2022-10-21T16:09:33.673Z,13.74
2022-10-21T16:12:35.347Z,13.72
2022-10-21T16:15:37.173Z,13.71
2022-10-21T16:18:39.025Z,13.69
2022-10-21T16:21:40.579Z,13.66
2022-10-21T16:24:43.619Z,13.63
2022-10-21T16:27:55.653Z,13.60
2022-10-21T16:30:59.247Z,13.56
2022-10-21T16:34:00.730Z,13.56
2022-10-21T16:37:02.225Z,13.50
2022-10-21T16:40:12.687Z,13.48
2022-10-21T16:43:16.244Z,13.46
2022-10-21T16:46:22.621Z,13.45
2022-10-21T16:49:27.976Z,13.42
2022-10-21T16:52:29.746Z,13.41
2022-10-21T16:55:32.789Z,13.42
2022-10-21T16:58:34.481Z,13.41
2022-10-21T17:01:36.458Z,13.41
2022-10-21T17:04:37.995Z,13.36
2022-10-21T17:07:39.885Z,13.33
2022-10-21T17:10:45.073Z,13.31
2022-10-21T17:13:46.994Z,13.28
2022-10-21T17:16:48.526Z,13.29
2022-10-21T17:19:50.290Z,13.24
2022-10-21T17:22:51.870Z,13.23
2022-10-21T17:25:55.076Z,13.20
2022-10-21T17:28:57.269Z,13.17
2022-10-21T17:31:59.078Z,13.11
2022-10-21T17:35:00.732Z,13.09
2022-10-21T17:38:02.568Z,13.05
2022-10-21T17:41:05.596Z,13.01
2022-10-21T17:44:07.298Z,12.97
2022-10-21T17:47:09.387Z,12.94
2022-10-21T17:50:11.929Z,12.90
2022-10-21T17:53:13.465Z,12.87
2022-10-21T17:56:16.919Z,12.82
2022-10-21T17:59:18.537Z,12.81
2022-10-21T18:02:23.076Z,12.80
2022-10-21T18:05:24.742Z,12.82
2022-10-21T18:08:26.322Z,12.81
2022-10-21T18:11:29.370Z,12.80
2022-10-21T18:14:31.035Z,12.79
2022-10-21T18:17:33.933Z,12.80
2022-10-21T18:20:36.420Z,12.80
2022-10-21T18:23:38.869Z,12.77
2022-10-21T18:26:41.776Z,12.73
2022-10-21T18:29:43.450Z,12.71
2022-10-21T18:32:44.961Z,12.66
2022-10-21T18:35:46.565Z,12.63
2022-10-21T18:38:48.191Z,12.63
2022-10-21T18:41:51.062Z,12.62
2022-10-21T18:44:52.698Z,12.60
2022-10-21T18:47:55.906Z,12.60
2022-10-21T18:50:58.140Z,12.60
2022-10-21T18:54:00.708Z,12.60
2022-10-21T18:57:06.589Z,12.60
2022-10-21T19:00:08.436Z,12.60
2022-10-21T19:03:10.101Z,12.58
2022-10-21T19:06:16.251Z,12.59
2022-10-21T19:09:19.078Z,12.63
2022-10-21T19:12:23.507Z,12.62
2022-10-21T19:15:25.752Z,12.64
2022-10-21T19:18:27.748Z,12.66
2022-10-21T19:21:29.662Z,12.67
2022-10-21T19:24:31.498Z,12.69
2022-10-21T19:27:34.526Z,12.72
2022-10-21T19:30:39.034Z,12.76
2022-10-21T19:33:41.534Z,12.76
2022-10-21T19:36:43.295Z,12.77
2022-10-21T19:39:44.983Z,12.75
2022-10-21T19:42:47.911Z,12.74
2022-10-21T19:45:50.332Z,12.70
2022-10-21T19:48:51.822Z,12.74
2022-10-21T19:51:53.566Z,12.73
2022-10-21T19:54:54.969Z,12.73
2022-10-21T19:57:57.930Z,12.69
2022-10-21T20:01:02.956Z,12.67
2022-10-21T20:04:04.968Z,12.61
2022-10-21T20:07:06.774Z,12.55
2022-10-21T20:10:08.796Z,12.52
2022-10-21T20:13:11.790Z,12.46
2022-10-21T20:16:14.537Z,12.42
2022-10-21T20:19:16.259Z,12.39
2022-10-21T20:22:17.903Z,12.35
2022-10-21T20:25:19.719Z,12.33
2022-10-21T20:28:23.412Z,12.31
2022-10-21T20:31:28.772Z,12.26
2022-10-21T20:34:33.939Z,12.25
2022-10-21T20:37:41.588Z,12.20
2022-10-21T20:40:43.684Z,12.14
2022-10-21T20:43:46.922Z,12.11
2022-10-21T20:46:48.937Z,12.06
2022-10-21T20:49:50.701Z,12.15
2022-10-21T20:52:52.470Z,12.21
2022-10-21T20:55:54.936Z,12.20
2022-10-21T20:58:58.608Z,12.23
2022-10-21T21:02:00.775Z,12.28
2022-10-21T21:05:02.569Z,12.29
2022-10-21T21:08:04.446Z,12.31
2022-10-21T21:11:09.705Z,12.31
2022-10-21T21:14:12.762Z,12.33
2022-10-21T21:17:14.314Z,12.30
2022-10-21T21:20:16.075Z,12.37
2022-10-21T21:23:17.589Z,12.42
2022-10-21T21:26:20.240Z,12.45
2022-10-21T21:29:23.456Z,12.48
2022-10-21T21:32:25.400Z,12.47
2022-10-21T21:35:27.082Z,12.49
2022-10-21T21:38:29.107Z,12.51
2022-10-21T21:41:31.189Z,12.46
2022-10-21T21:44:34.443Z,12.46
2022-10-21T21:47:36.134Z,12.46
2022-10-21T21:50:37.843Z,12.44
2022-10-21T21:53:39.548Z,12.44
2022-10-21T21:56:41.311Z,12.42
2022-10-21T21:59:44.877Z,12.39
2022-10-21T22:02:50.510Z,12.37
2022-10-21T22:05:52.065Z,12.36
2022-10-21T22:08:54.023Z,12.36
2022-10-21T22:11:58.523Z,12.37
2022-10-21T22:15:01.404Z,12.34
2022-10-21T22:18:03.073Z,12.30
2022-10-21T22:21:05.721Z,12.28
2022-10-21T22:24:07.328Z,12.25
2022-10-21T22:27:09.073Z,12.20
2022-10-21T22:30:13.659Z,12.21
2022-10-21T22:33:15.338Z,12.17
2022-10-21T22:36:16.834Z,12.15
2022-10-21T22:39:18.796Z,12.12
2022-10-21T22:42:22.474Z,12.15
2022-10-21T22:45:25.632Z,12.26
2022-10-21T22:48:28.144Z,12.39
2022-10-21T22:51:29.721Z,12.44
2022-10-21T22:54:48.518Z,12.44
2022-10-21T22:57:50.849Z,12.44
2022-10-21T23:03:57.059Z,12.43
2022-10-21T23:06:58.605Z,12.42
2022-10-21T23:10:01.496Z,12.44
2022-10-21T23:13:05.497Z,12.46
2022-10-21T23:16:08.544Z,12.45
2022-10-21T23:22:11.780Z,12.43
2022-10-21T23:25:13.476Z,12.39
2022-10-21T23:28:15.091Z,12.41
2022-10-21T23:31:18.553Z,12.47
2022-10-21T23:34:20.279Z,12.51
2022-10-21T23:37:21.935Z,12.52
2022-10-21T23:40:23.696Z,12.52
2022-10-21T23:43:25.197Z,12.51
2022-10-21T23:49:29.517Z,12.52
2022-10-21T23:52:31.041Z,12.49
2022-10-21T23:58:35.073Z,12.50
